Time;durP1;ratioP1;P1;durP2;ratioP2;P2;SDS_P1;SDS_P2;PMS_P1;PMS_P2;Temp;Humidity;BMP_temperature;BMP_pressure;BME280_temperature;BME280_humidity;BME280_pressure;Samples;Min_cycle;Max_cycle;Signal;HPM_P1;HPM_P2
2023/07/21 00:00:14;;;;;;;10.50;6.20;;;;;;;13.79;93.24;97599.86;106874;1275;24808;-73
2023/07/21 00:03:05;;;;;;;9.00;6.40;;;;;;;13.67;93.64;97595.75;106843;1275;25671;-74
2023/07/21 00:05:33;;;;;;;7.00;5.50;;;;;;;13.60;94.43;97598.71;106872;1275;22515;-74
2023/07/21 00:08:03;;;;;;;7.00;6.30;;;;;;;13.57;95.16;97600.45;106866;1275;23684;-75
2023/07/21 00:10:31;;;;;;;6.90;5.40;;;;;;;13.54;95.17;97599.48;106813;1275;24223;-74
2023/07/21 00:12:59;;;;;;;6.50;5.30;;;;;;;13.50;95.71;97605.56;106885;1275;25344;-74
2023/07/21 00:15:27;;;;;;;8.40;5.40;;;;;;;13.43;95.75;97601.88;106832;1275;22528;-75
2023/07/21 00:17:55;;;;;;;7.20;5.20;;;;;;;13.39;95.53;97602.96;106807;1275;25255;-74
2023/07/21 00:20:24;;;;;;;10.10;6.30;;;;;;;13.34;95.86;97608.02;106821;1275;25406;-75
2023/07/21 00:22:52;;;;;;;8.80;5.70;;;;;;;13.29;96.17;97608.84;106903;1275;24255;-75
2023/07/21 00:25:21;;;;;;;6.60;5.20;;;;;;;13.23;95.86;97610.41;106988;1275;22533;-75
2023/07/21 00:27:49;;;;;;;7.50;5.50;;;;;;;13.19;95.74;97611.48;106800;1275;191740;-74
2023/07/21 00:30:19;;;;;;;7.80;5.40;;;;;;;13.30;96.91;97608.38;106875;1275;22632;-75
2023/07/21 00:32:47;;;;;;;5.90;4.90;;;;;;;13.52;97.13;97607.38;106856;1275;23339;-75
2023/07/21 00:35:15;;;;;;;6.60;5.60;;;;;;;13.49;95.58;97606.85;106804;1275;22658;-75
2023/07/21 00:37:43;;;;;;;7.70;5.40;;;;;;;13.41;95.89;97605.92;106838;1275;22528;-74
2023/07/21 00:40:22;;;;;;;10.90;5.20;;;;;;;13.43;96.51;97598.50;106805;1275;22732;-74
2023/07/21 00:42:51;;;;;;;10.50;6.00;;;;;;;13.53;95.80;97595.21;106813;1275;22585;-74
2023/07/21 00:45:19;;;;;;;8.60;5.70;;;;;;;13.48;95.56;97589.43;106809;1275;25470;-74
2023/07/21 00:47:47;;;;;;;7.50;5.30;;;;;;;13.36;95.21;97589.86;106800;1275;24479;-74
2023/07/21 00:50:16;;;;;;;7.00;5.30;;;;;;;13.25;95.45;97587.59;106819;1275;22517;-74
2023/07/21 00:52:48;;;;;;;8.40;5.60;;;;;;;13.15;95.73;97586.73;106849;1275;22539;-74
2023/07/21 00:55:16;;;;;;;5.90;4.80;;;;;;;13.17;95.66;97589.98;106877;1275;24346;-74
2023/07/21 00:57:45;;;;;;;8.60;5.80;;;;;;;13.16;95.50;97593.91;106906;1263;22558;-74
2023/07/21 01:00:13;;;;;;;9.40;5.80;;;;;;;13.16;95.52;97589.23;106814;1275;25298;-73
2023/07/21 01:02:41;;;;;;;7.30;5.90;;;;;;;13.13;95.49;97589.14;106837;1275;25278;-74
2023/07/21 01:05:12;;;;;;;8.30;5.50;;;;;;;13.13;95.79;97582.10;106843;1275;22562;-74
2023/07/21 01:07:41;;;;;;;8.10;5.80;;;;;;;13.13;96.00;97581.91;106842;1275;25149;-74
2023/07/21 01:10:11;;;;;;;6.80;5.50;;;;;;;13.08;95.70;97582.47;106892;1275;22672;-74
2023/07/21 01:12:40;;;;;;;7.00;5.00;;;;;;;13.05;96.09;97579.42;106871;1275;25039;-74
2023/07/21 01:15:09;;;;;;;8.00;6.00;;;;;;;13.12;97.07;97574.16;106810;1275;22596;-75
2023/07/21 01:17:38;;;;;;;7.00;5.60;;;;;;;13.27;96.68;97578.40;106826;1275;24259;-75
2023/07/21 01:20:11;;;;;;;7.10;5.70;;;;;;;13.24;96.19;97574.83;106913;1275;22626;-74
2023/07/21 01:22:47;;;;;;;7.40;5.80;;;;;;;13.18;96.56;97574.87;106939;1275;25436;-75
2023/07/21 01:25:16;;;;;;;6.90;5.60;;;;;;;13.33;97.53;97570.11;106810;1275;24311;-75
2023/07/21 01:27:48;;;;;;;10.70;5.80;;;;;;;13.45;96.61;97578.79;106829;1275;22577;-75
2023/07/21 01:30:20;;;;;;;9.00;5.10;;;;;;;13.40;96.53;97579.44;106945;1275;22648;-75
2023/07/21 01:32:50;;;;;;;6.10;5.20;;;;;;;13.36;96.66;97582.00;106858;1275;24557;-74
2023/07/21 01:35:19;;;;;;;6.20;4.90;;;;;;;13.36;96.81;97579.41;106925;1275;22712;-74
2023/07/21 01:37:49;;;;;;;10.20;5.60;;;;;;;13.56;97.66;97573.06;106960;1266;24263;-74
2023/07/21 01:40:18;;;;;;;8.60;6.00;;;;;;;13.73;97.40;97575.23;106937;1275;22678;-75
2023/07/21 01:42:47;;;;;;;17.60;7.10;;;;;;;13.74;96.55;97579.70;106873;1275;25271;-76
2023/07/21 01:45:15;;;;;;;7.60;5.10;;;;;;;13.66;96.46;97577.52;106902;1275;24233;-75
2023/07/21 01:47:48;;;;;;;8.00;5.60;;;;;;;13.62;96.30;97576.52;106857;1275;22607;-75
2023/07/21 01:50:18;;;;;;;7.40;5.00;;;;;;;13.67;96.56;97574.84;106792;1275;23057;-75
2023/07/21 01:52:47;;;;;;;5.50;4.60;;;;;;;13.74;96.38;97577.60;106875;1252;22683;-75
2023/07/21 01:55:25;;;;;;;7.80;4.90;;;;;;;13.76;96.75;97576.69;106843;1275;24258;-75
2023/07/21 01:58:05;;;;;;;6.90;4.70;;;;;;;13.89;96.73;97577.79;106821;1275;24487;-75
2023/07/21 02:00:37;;;;;;;6.60;5.40;;;;;;;13.81;96.26;97576.76;106868;1275;24439;-75
2023/07/21 02:03:21;;;;;;;7.30;5.10;;;;;;;13.80;96.37;97578.61;106848;1275;25409;-75
2023/07/21 02:05:49;;;;;;;8.40;6.10;;;;;;;13.83;96.75;97580.98;106967;1275;23027;-75
2023/07/21 02:08:20;;;;;;;5.80;5.20;;;;;;;13.89;96.41;97579.89;106821;1275;22525;-75
2023/07/21 02:10:49;;;;;;;8.00;6.00;;;;;;;13.90;97.06;97580.62;106914;1275;22686;-75
2023/07/21 02:13:31;;;;;;;6.90;5.40;;;;;;;14.05;97.22;97574.85;106813;1275;23002;-75
2023/07/21 02:15:59;;;;;;;7.10;5.50;;;;;;;14.09;96.69;97572.08;106852;1275;24441;-75
2023/07/21 02:18:29;;;;;;;8.60;5.10;;;;;;;14.19;96.69;97573.20;106887;1275;22553;-75
2023/07/21 02:21:02;;;;;;;6.90;5.00;;;;;;;14.23;96.22;97572.27;106907;1275;22533;-75
2023/07/21 02:23:31;;;;;;;6.90;5.60;;;;;;;14.16;95.75;97576.73;106926;1275;25398;-75
2023/07/21 02:26:00;;;;;;;8.40;5.00;;;;;;;14.12;96.28;97578.21;106973;1275;25340;-75
2023/07/21 02:28:28;;;;;;;6.50;5.40;;;;;;;14.07;96.28;97585.27;106823;1275;24325;-75
2023/07/21 02:31:03;;;;;;;7.40;6.00;;;;;;;13.98;96.27;97587.90;106843;1275;22696;-76
2023/07/21 02:33:32;;;;;;;7.20;5.00;;;;;;;13.99;96.86;97585.02;106838;1275;22517;-76
2023/07/21 02:36:02;;;;;;;8.40;5.80;;;;;;;13.98;96.87;97587.11;106918;1275;22637;-75
2023/07/21 02:38:31;;;;;;;7.40;4.80;;;;;;;13.98;96.97;97587.52;106902;1275;24375;-75
2023/07/21 02:41:04;;;;;;;7.00;5.30;;;;;;;13.96;96.89;97585.81;106941;1275;25512;-74
2023/07/21 02:43:35;;;;;;;8.00;5.60;;;;;;;13.93;97.26;97588.26;106877;1275;24198;-76
2023/07/21 02:46:04;;;;;;;6.30;5.70;;;;;;;13.90;96.91;97586.59;106836;1275;22673;-74
2023/07/21 02:48:34;;;;;;;7.40;6.10;;;;;;;13.83;97.07;97589.48;106876;1275;22528;-75
2023/07/21 02:51:02;;;;;;;7.10;5.20;;;;;;;13.92;97.91;97588.67;106922;1275;22645;-75
2023/07/21 02:53:34;;;;;;;6.20;5.00;;;;;;;14.01;97.65;97590.12;106865;1275;22543;-75
2023/07/21 02:56:06;;;;;;;8.00;5.40;;;;;;;13.97;98.13;97589.95;106808;1275;22531;-75
2023/07/21 02:58:46;;;;;;;7.50;5.40;;;;;;;13.89;98.38;97588.33;106803;1275;24378;-75
2023/07/21 03:01:15;;;;;;;6.50;5.30;;;;;;;13.83;98.33;97587.48;106791;1275;25388;-77
2023/07/21 03:03:44;;;;;;;9.10;5.20;;;;;;;13.81;97.98;97588.16;106821;1275;22541;-74
2023/07/21 03:06:12;;;;;;;8.00;5.10;;;;;;;13.86;98.39;97588.98;106911;1265;22547;-75
2023/07/21 03:08:41;;;;;;;5.90;5.10;;;;;;;13.92;98.37;97595.97;106860;1275;24186;-74
2023/07/21 03:11:14;;;;;;;6.90;5.10;;;;;;;13.88;98.79;97593.54;106828;1275;23106;-75
2023/07/21 03:13:53;;;;;;;7.00;5.60;;;;;;;13.81;98.79;97594.14;106828;1275;22630;-75
2023/07/21 03:16:21;;;;;;;7.30;5.10;;;;;;;13.83;98.84;97594.98;106874;1275;22569;-75
2023/07/21 03:18:53;;;;;;;6.90;4.90;;;;;;;13.84;98.84;97595.34;106880;1275;22525;-75
2023/07/21 03:21:21;;;;;;;6.20;5.40;;;;;;;13.84;99.36;97595.46;106826;1262;22533;-75
2023/07/21 03:23:50;;;;;;;6.30;5.00;;;;;;;13.82;99.60;97597.05;106908;1275;22777;-75
2023/07/21 03:26:22;;;;;;;7.10;5.00;;;;;;;13.86;99.88;97595.01;106897;1275;25499;-74
2023/07/21 03:28:52;;;;;;;7.20;5.10;;;;;;;14.00;100.00;97593.48;106949;1275;24301;-76
2023/07/21 03:31:22;;;;;;;6.20;5.10;;;;;;;14.09;99.87;97590.80;106877;1275;25329;-74
2023/07/21 03:33:55;;;;;;;6.50;5.70;;;;;;;14.17;99.52;97594.60;106929;1275;25209;-76
2023/07/21 03:36:26;;;;;;;8.60;5.60;;;;;;;14.21;99.21;97593.20;106899;1275;22529;-75
2023/07/21 03:38:54;;;;;;;6.60;5.30;;;;;;;14.27;99.23;97592.79;106853;1275;25363;-75
2023/07/21 03:41:22;;;;;;;5.70;5.10;;;;;;;14.29;99.14;97592.95;106808;1275;25539;-75
2023/07/21 03:43:51;;;;;;;6.70;5.00;;;;;;;14.35;99.45;97592.45;106936;1275;22640;-75
2023/07/21 03:46:19;;;;;;;7.10;5.20;;;;;;;14.51;99.86;97586.05;106864;1275;22647;-75
2023/07/21 03:48:54;;;;;;;6.30;5.60;;;;;;;14.69;100.00;97580.66;106875;1275;22610;-75
2023/07/21 03:51:22;;;;;;;7.50;4.90;;;;;;;14.88;100.00;97576.33;106870;1275;22668;-75
2023/07/21 03:53:50;;;;;;;7.80;5.30;;;;;;;14.95;99.29;97577.61;106894;1275;22525;-74
2023/07/21 03:56:21;;;;;;;7.00;5.00;;;;;;;14.95;99.03;97578.69;106831;1275;22809;-74
2023/07/21 03:58:50;;;;;;;6.90;5.20;;;;;;;14.94;99.05;97576.34;106836;1275;22523;-74
2023/07/21 04:01:18;;;;;;;6.30;5.00;;;;;;;14.95;99.00;97577.60;106891;1275;22641;-74
2023/07/21 04:03:48;;;;;;;8.00;4.80;;;;;;;15.02;99.01;97578.56;106920;1275;22539;-74
2023/07/21 04:06:21;;;;;;;9.50;5.10;;;;;;;15.02;98.77;97579.39;106941;1275;22514;-75
2023/07/21 04:08:51;;;;;;;7.20;5.40;;;;;;;15.00;98.68;97577.55;106913;1275;22551;-75
2023/07/21 04:11:20;;;;;;;6.70;5.80;;;;;;;15.01;99.39;97575.08;106946;1275;22647;-75
2023/07/21 04:13:48;;;;;;;6.60;5.40;;;;;;;14.99;99.07;97575.16;106941;1275;22594;-75
2023/07/21 04:16:16;;;;;;;6.80;5.60;;;;;;;15.05;99.21;97579.25;106860;1275;22666;-75
2023/07/21 04:18:44;;;;;;;7.90;4.70;;;;;;;15.06;98.94;97574.33;106897;1275;25448;-75
2023/07/21 04:21:13;;;;;;;9.00;5.80;;;;;;;15.07;99.30;97576.69;106883;1275;24196;-75
2023/07/21 04:23:41;;;;;;;8.40;5.40;;;;;;;15.07;99.47;97578.25;106967;1275;25633;-75
2023/07/21 04:26:14;;;;;;;7.90;6.10;;;;;;;15.07;99.47;97576.94;106921;1275;22554;-75
2023/07/21 04:28:44;;;;;;;8.80;5.90;;;;;;;15.10;99.50;97574.07;106844;1275;24803;-76
2023/07/21 04:31:12;;;;;;;10.50;5.60;;;;;;;15.14;99.60;97568.79;106867;1275;25316;-75
2023/07/21 04:33:52;;;;;;;7.50;5.70;;;;;;;15.24;99.56;97567.49;106830;1275;22577;-76
2023/07/21 04:36:20;;;;;;;7.10;5.40;;;;;;;15.30;99.54;97561.89;106896;1275;25322;-76
2023/07/21 04:38:48;;;;;;;8.90;6.80;;;;;;;15.33;99.75;97558.16;106900;1275;22628;-75
2023/07/21 04:41:19;;;;;;;7.90;6.60;;;;;;;15.36;99.78;97560.77;106925;1265;22529;-75
2023/07/21 04:43:47;;;;;;;7.60;6.70;;;;;;;15.47;100.00;97567.48;106888;1275;22744;-75
2023/07/21 04:46:15;;;;;;;8.30;6.60;;;;;;;15.61;100.00;97564.58;106866;1275;22635;-75
2023/07/21 04:48:43;;;;;;;10.10;6.90;;;;;;;15.76;99.79;97561.57;106937;1275;22531;-75
2023/07/21 04:51:15;;;;;;;9.40;7.20;;;;;;;15.85;99.62;97557.29;106843;1275;24431;-75
2023/07/21 04:53:43;;;;;;;9.40;7.40;;;;;;;15.97;99.54;97565.27;106958;1274;22633;-75
2023/07/21 04:56:13;;;;;;;10.40;7.80;;;;;;;16.05;99.07;97566.59;106882;1274;24258;-80
2023/07/21 04:58:49;;;;;;;17.60;10.40;;;;;;;16.07;99.00;97568.98;106934;1260;22542;-78
2023/07/21 05:01:17;;;;;;;13.00;11.50;;;;;;;16.10;98.89;97566.59;106893;1275;22818;-76
2023/07/21 05:03:46;;;;;;;18.30;12.20;;;;;;;16.14;98.71;97568.40;106979;1275;22990;-76
2023/07/21 05:06:14;;;;;;;15.30;9.40;;;;;;;16.15;98.20;97572.16;106913;1275;22602;-77
2023/07/21 05:08:48;;;;;;;11.90;7.50;;;;;;;16.15;97.90;97580.33;106860;1275;23159;-77
2023/07/21 05:11:16;;;;;;;10.10;7.80;;;;;;;16.15;97.71;97583.11;106834;1275;22618;-77
2023/07/21 05:13:45;;;;;;;10.70;7.10;;;;;;;16.11;97.47;97578.20;106864;1275;22517;-78
2023/07/21 05:16:23;;;;;;;14.70;8.80;;;;;;;16.10;97.50;97572.56;106849;1275;22998;-76
2023/07/21 05:19:15;;;;;;;15.80;7.20;;;;;;;16.08;97.11;97580.91;106584;1275;25397;-77
2023/07/21 05:22:02;;;;;;;9.80;6.50;;;;;;;16.06;96.85;97587.73;107192;1275;22748;-77
2023/07/21 05:24:51;;;;;;;10.00;5.80;;;;;;;16.07;96.91;97584.83;106821;1275;26509;-76
2023/07/21 05:27:22;;;;;;;8.90;7.60;;;;;;;16.09;96.99;97580.31;106840;1275;25228;-78
2023/07/21 05:29:55;;;;;;;14.60;7.70;;;;;;;16.15;96.77;97586.30;106925;1275;22624;-76
2023/07/21 05:32:24;;;;;;;8.80;6.70;;;;;;;16.17;96.53;97596.52;106935;1275;24479;-77
2023/07/21 05:35:15;;;;;;;8.80;7.40;;;;;;;16.14;96.23;97605.62;106883;1274;25509;-78
2023/07/21 05:37:49;;;;;;;9.30;6.10;;;;;;;16.12;96.11;97606.41;106932;1274;22515;-76
2023/07/21 05:40:17;;;;;;;10.10;7.40;;;;;;;16.18;96.43;97600.13;106989;1252;22542;-80
2023/07/21 05:42:49;;;;;;;14.30;9.30;;;;;;;16.30;96.36;97602.59;107200;1274;25280;-76
2023/07/21 05:45:17;;;;;;;16.50;9.40;;;;;;;16.52;97.51;97600.36;107287;1275;23096;-75
2023/07/21 05:47:53;;;;;;;12.30;9.40;;;;;;;16.79;96.55;97603.56;107531;1267;22536;-77
2023/07/21 05:50:22;;;;;;;13.10;8.70;;;;;;;16.85;95.08;97613.12;106956;1273;24257;-76
2023/07/21 05:52:52;;;;;;;14.90;12.50;;;;;;;16.74;94.04;97615.23;106931;1275;25344;-76
2023/07/21 05:55:27;;;;;;;15.20;13.50;;;;;;;16.56;93.09;97612.91;106897;1275;23899;-76
2023/07/21 05:58:01;;;;;;;12.70;10.30;;;;;;;16.40;92.68;97617.58;106972;1274;24445;-75
2023/07/21 06:00:29;;;;;;;12.10;8.70;;;;;;;16.25;92.82;97617.67;106910;1274;25399;-76
2023/07/21 06:02:58;;;;;;;11.40;8.50;;;;;;;16.18;93.40;97613.95;106970;1274;22525;-75
2023/07/21 06:05:27;;;;;;;9.70;7.50;;;;;;;16.14;93.08;97620.98;106960;1272;25340;-75
2023/07/21 06:08:09;;;;;;;11.20;8.10;;;;;;;16.10;92.91;97619.15;107022;1274;22620;-77
2023/07/21 06:11:01;;;;;;;9.40;6.90;;;;;;;16.07;93.37;97611.67;107246;1274;26524;-77
2023/07/21 06:13:54;;;;;;;10.20;8.20;;;;;;;16.27;93.50;97610.42;107286;1271;22774;-76
2023/07/21 06:16:35;;;;;;;11.30;8.00;;;;;;;16.34;92.69;97619.95;106864;1271;22513;-79
2023/07/21 06:19:04;;;;;;;15.50;9.00;;;;;;;16.31;92.36;97619.73;107047;1274;22555;-79
2023/07/21 06:21:32;;;;;;;13.10;8.90;;;;;;;16.21;91.91;97627.02;107288;1274;24252;-78
2023/07/21 06:24:00;;;;;;;10.50;8.80;;;;;;;16.11;91.94;97633.32;107299;1274;24660;-79
2023/07/21 06:26:29;;;;;;;14.60;9.00;;;;;;;16.02;91.50;97638.31;107303;1274;22613;-79
2023/07/21 06:28:57;;;;;;;9.80;8.10;;;;;;;15.94;91.70;97634.19;107328;1274;22702;-78
2023/07/21 06:31:25;;;;;;;12.20;9.00;;;;;;;15.91;91.80;97636.27;107348;1275;23899;-76
2023/07/21 06:34:14;;;;;;;12.60;7.90;;;;;;;15.86;91.68;97630.53;106938;1274;22630;-76
2023/07/21 06:37:00;;;;;;;10.50;8.00;;;;;;;15.84;91.67;97628.00;107311;1274;22532;-76
2023/07/21 06:39:50;;;;;;;9.20;8.10;;;;;;;15.84;91.54;97628.14;106935;1274;25105;-78
2023/07/21 06:42:38;;;;;;;12.60;7.50;;;;;;;15.84;91.63;97620.84;107291;1274;22610;-79
2023/07/21 06:45:25;;;;;;;12.70;8.60;;;;;;;15.89;91.47;97620.69;107416;1274;24241;-78
2023/07/21 06:48:16;;;;;;;12.00;8.40;;;;;;;15.88;91.52;97627.02;107027;1274;22755;-80
2023/07/21 06:51:03;;;;;;;14.90;8.60;;;;;;;15.92;91.50;97633.98;107554;1263;22525;-78
2023/07/21 06:53:31;;;;;;;13.80;9.70;;;;;;;15.96;91.45;97637.51;107215;1254;22519;-78
2023/07/21 06:55:59;;;;;;;12.90;8.60;;;;;;;16.01;91.48;97636.95;106722;1273;24201;-78
2023/07/21 06:58:27;;;;;;;10.10;8.40;;;;;;;16.07;91.61;97628.23;106906;1275;24114;-77
2023/07/21 07:00:57;;;;;;;15.40;8.90;;;;;;;16.16;91.63;97632.45;106891;1269;23283;-77
2023/07/21 07:03:26;;;;;;;14.60;9.30;;;;;;;16.20;91.47;97625.13;106987;1274;24363;-77
2023/07/21 07:05:54;;;;;;;14.20;9.00;;;;;;;16.24;91.49;97627.36;106980;1274;22590;-77
2023/07/21 07:08:22;;;;;;;11.30;8.10;;;;;;;16.33;91.64;97621.40;106959;1274;24347;-78
2023/07/21 07:10:50;;;;;;;11.70;7.90;;;;;;;16.45;91.69;97621.98;107469;1271;22644;-78
2023/07/21 07:13:18;;;;;;;12.70;8.40;;;;;;;16.57;91.45;97614.19;106974;1274;22626;-79
2023/07/21 07:15:53;;;;;;;14.10;8.60;;;;;;;16.66;91.55;97612.17;107496;1272;25284;-80
2023/07/21 07:18:21;;;;;;;14.90;10.20;;;;;;;16.75;91.29;97607.77;107462;1274;22550;-78
2023/07/21 07:20:50;;;;;;;15.10;9.30;;;;;;;16.83;91.44;97602.82;107425;1275;22599;-78
2023/07/21 07:23:19;;;;;;;17.90;10.40;;;;;;;16.94;91.36;97599.92;107466;1263;22528;-77
2023/07/21 07:25:51;;;;;;;14.80;9.50;;;;;;;17.06;91.12;97600.64;107564;1275;25272;-79
2023/07/21 07:28:21;;;;;;;14.70;9.30;;;;;;;17.19;90.96;97600.29;107441;1267;22637;-80
2023/07/21 07:30:49;;;;;;;14.70;10.00;;;;;;;17.37;91.18;97592.11;107388;1267;22740;-80
2023/07/21 07:33:17;;;;;;;15.20;10.00;;;;;;;17.57;91.03;97595.15;107368;1275;22606;-80
2023/07/21 07:35:50;;;;;;;14.40;8.70;;;;;;;17.71;90.71;97597.06;107350;1275;22594;-80
2023/07/21 07:38:27;;;;;;;13.00;9.70;;;;;;;17.88;90.76;97589.64;107283;1275;22576;-83
2023/07/21 07:41:05;;;;;;;;;;;;;;;18.01;90.27;97583.30;107421;1275;22524;-79
2023/07/21 07:43:34;;;;;;;13.90;9.30;;;;;;;18.18;90.37;97581.34;107378;1275;25203;-79
2023/07/21 07:46:07;;;;;;;8.80;7.10;;;;;;;18.32;89.96;97581.33;107368;1275;22566;-80
2023/07/21 07:48:35;;;;;;;9.50;7.10;;;;;;;18.42;88.98;97578.56;107432;1275;22635;-78
2023/07/21 07:51:05;;;;;;;13.70;7.80;;;;;;;18.52;89.30;97574.40;107361;1275;25478;-79
2023/07/21 07:53:35;;;;;;;12.70;7.30;;;;;;;18.65;89.03;97581.77;107488;1275;22644;-81
2023/07/21 07:56:03;;;;;;;13.60;6.30;;;;;;;18.79;89.01;97585.58;107454;1275;24210;-82
2023/07/21 07:58:32;;;;;;;9.10;7.50;;;;;;;18.96;88.91;97588.80;107360;1275;23884;-80
2023/07/21 08:01:00;;;;;;;10.60;7.40;;;;;;;19.08;88.46;97589.27;107207;1274;22531;-81
2023/07/21 08:03:32;;;;;;;11.30;7.30;;;;;;;19.16;87.81;97592.92;107458;1274;22872;-82
2023/07/21 08:06:01;;;;;;;12.70;7.30;;;;;;;19.21;87.03;97601.59;107430;1270;25311;-81
2023/07/21 08:08:29;;;;;;;9.70;6.60;;;;;;;19.29;86.77;97603.91;107483;1274;22690;-81
2023/07/21 08:10:57;;;;;;;10.90;7.10;;;;;;;19.38;86.32;97596.81;107405;1274;24252;-80
2023/07/21 08:13:25;;;;;;;12.20;5.60;;;;;;;19.49;85.12;97598.25;107367;1274;24187;-79
2023/07/21 08:15:53;;;;;;;9.80;5.30;;;;;;;19.56;84.24;97599.38;107416;1275;22521;-80
2023/07/21 08:18:21;;;;;;;9.40;5.10;;;;;;;19.76;84.93;97601.15;107421;1274;22537;-79
2023/07/21 08:20:51;;;;;;;10.30;5.00;;;;;;;20.01;84.29;97600.98;107411;1274;25287;-79
2023/07/21 08:23:19;;;;;;;11.20;5.50;;;;;;;20.11;82.05;97597.99;107416;1274;22545;-80
2023/07/21 08:25:57;;;;;;;13.50;5.10;;;;;;;20.08;78.81;97600.54;107430;1274;24350;-79
2023/07/21 08:28:25;;;;;;;10.30;6.70;;;;;;;20.09;79.90;97596.96;107382;1274;24233;-79
2023/07/21 08:30:53;;;;;;;9.70;6.00;;;;;;;20.13;77.94;97601.94;107468;1274;25475;-79
2023/07/21 08:33:27;;;;;;;10.40;5.60;;;;;;;20.06;75.28;97604.20;107381;1274;22651;-83
2023/07/21 08:35:55;;;;;;;7.10;4.90;;;;;;;20.00;77.04;97607.36;107490;1274;25506;-81
2023/07/21 08:38:24;;;;;;;9.40;5.30;;;;;;;20.06;77.92;97605.13;107481;1275;25273;-82
2023/07/21 08:41:01;;;;;;;4.70;3.60;;;;;;;20.19;78.77;97606.64;107486;1274;22734;-83
2023/07/21 08:43:30;;;;;;;8.70;4.50;;;;;;;20.49;78.39;97605.66;107405;1274;22762;-81
2023/07/21 08:46:00;;;;;;;9.90;4.30;;;;;;;20.63;78.28;97599.91;107427;1274;22642;-80
2023/07/21 08:48:30;;;;;;;7.40;4.40;;;;;;;20.70;76.70;97597.64;107476;1274;23533;-87
2023/07/21 08:50:58;;;;;;;8.00;4.60;;;;;;;20.77;76.37;97593.89;107541;1275;22609;-83
2023/07/21 08:53:27;;;;;;;10.10;5.00;;;;;;;20.91;74.79;97585.52;107441;1274;22524;-82
2023/07/21 08:55:57;;;;;;;7.40;3.70;;;;;;;21.09;75.74;97581.73;107641;1274;25357;-82
2023/07/21 08:58:26;;;;;;;5.40;3.90;;;;;;;21.35;76.29;97578.24;107485;1274;23282;-83
2023/07/21 09:00:56;;;;;;;7.00;3.40;;;;;;;21.49;74.14;97581.66;107547;1274;22536;-82
2023/07/21 09:03:28;;;;;;;5.00;3.40;;;;;;;21.51;74.00;97582.78;107415;1274;24364;-83
2023/07/21 09:05:59;;;;;;;5.30;3.30;;;;;;;21.60;73.83;97589.68;107506;1251;22677;-82
2023/07/21 09:08:31;;;;;;;6.40;3.20;;;;;;;21.63;72.87;97593.14;107442;1274;22662;-84
2023/07/21 09:11:00;;;;;;;5.20;3.10;;;;;;;21.65;73.13;97593.23;107472;1263;24241;-83
2023/07/21 09:13:29;;;;;;;5.50;3.10;;;;;;;21.68;71.60;97592.56;107476;1274;25269;-83
2023/07/21 09:16:05;;;;;;;8.60;3.40;;;;;;;21.59;69.30;97587.85;107466;1274;24395;-84
2023/07/21 09:18:41;;;;;;;6.20;3.00;;;;;;;21.51;70.70;97588.17;107548;1274;22591;-84
2023/07/21 09:21:20;;;;;;;7.50;3.40;;;;;;;21.57;69.85;97598.26;107508;1274;22527;-84
2023/07/21 09:23:49;;;;;;;7.40;3.50;;;;;;;21.66;70.53;97595.45;107422;1269;24250;-83
2023/07/21 09:26:22;;;;;;;5.60;3.50;;;;;;;21.75;68.62;97605.54;107409;1274;22539;-84
2023/07/21 09:28:51;;;;;;;4.00;3.10;;;;;;;21.62;67.26;97609.59;107563;1274;22620;-85
2023/07/21 09:31:33;;;;;;;6.20;3.10;;;;;;;21.51;68.26;97613.25;107437;1274;25379;-85
2023/07/21 09:34:08;;;;;;;4.10;2.70;;;;;;;21.45;68.82;97613.10;107499;1258;22561;-85
2023/07/21 09:36:44;;;;;;;4.60;3.10;;;;;;;21.46;67.15;97613.52;107478;1274;22524;-84
2023/07/21 09:39:14;;;;;;;4.00;2.60;;;;;;;21.53;66.50;97613.98;107369;1275;22792;-86
2023/07/21 09:41:45;;;;;;;6.20;4.20;;;;;;;21.63;67.31;97613.04;107356;1275;22609;-85
2023/07/21 09:44:14;;;;;;;5.80;3.60;;;;;;;21.67;66.92;97614.25;107405;1275;25319;-84
2023/07/21 09:46:42;;;;;;;6.30;3.20;;;;;;;21.67;66.73;97608.54;107371;1275;25476;-84
2023/07/21 09:49:11;;;;;;;3.70;2.50;;;;;;;21.87;66.34;97604.69;107395;1275;25338;-85
2023/07/21 09:51:41;;;;;;;5.00;2.90;;;;;;;22.26;66.93;97596.91;107354;1275;24284;-83
2023/07/21 09:54:16;;;;;;;6.40;3.20;;;;;;;22.55;66.00;97590.63;107538;1274;24398;-83
2023/07/21 09:56:47;;;;;;;6.40;3.40;;;;;;;22.81;65.78;97590.73;107455;1274;25265;-82
2023/07/21 09:59:17;;;;;;;6.80;3.40;;;;;;;23.03;65.02;97592.86;107703;1274;23150;-81
2023/07/21 10:01:45;;;;;;;8.40;3.60;;;;;;;23.22;65.47;97587.43;107853;1272;22660;-82
2023/07/21 10:04:19;;;;;;;4.70;3.40;;;;;;;23.28;64.62;97586.10;107827;1274;22611;-81
2023/07/21 10:06:47;;;;;;;5.80;3.70;;;;;;;23.32;63.41;97593.17;107812;1274;22607;-80
2023/07/21 10:09:16;;;;;;;6.50;3.90;;;;;;;23.36;63.93;97596.09;107734;1263;22644;-80
2023/07/21 10:11:44;;;;;;;5.40;3.30;;;;;;;23.39;62.76;97596.09;107832;1267;22612;-81
2023/07/21 10:14:33;;;;;;;5.50;3.20;;;;;;;23.48;62.58;97592.80;107547;1274;25224;-80
2023/07/21 10:17:01;;;;;;;3.70;2.90;;;;;;;23.62;58.22;97589.90;107534;1274;22611;-81
2023/07/21 10:19:29;;;;;;;5.50;3.20;;;;;;;23.52;60.49;97593.51;107490;1274;23450;-81
2023/07/21 10:21:57;;;;;;;5.60;3.20;;;;;;;23.68;60.77;97585.83;107533;1274;24096;-80
2023/07/21 10:24:32;;;;;;;6.60;3.00;;;;;;;23.88;57.62;97578.84;107473;1274;25350;-82
2023/07/21 10:27:05;;;;;;;7.70;3.50;;;;;;;24.10;59.81;97577.09;107407;1274;22657;-83
2023/07/21 10:29:36;;;;;;;5.30;3.30;;;;;;;24.16;60.01;97574.23;107281;1274;22615;-84
2023/07/21 10:32:05;;;;;;;5.90;3.00;;;;;;;24.14;60.22;97569.52;107386;1274;22567;-84
2023/07/21 10:34:40;;;;;;;4.50;3.30;;;;;;;24.22;59.53;97577.52;107413;1274;24295;-83
2023/07/21 10:37:08;;;;;;;6.30;3.40;;;;;;;24.28;58.95;97576.88;107494;1274;25390;-84
2023/07/21 10:39:41;;;;;;;5.50;3.40;;;;;;;24.24;56.83;97575.55;107414;1274;25268;-84
2023/07/21 10:42:11;;;;;;;5.60;3.60;;;;;;;24.10;53.71;97572.91;107357;1275;22611;-85
2023/07/21 10:44:49;;;;;;;5.30;3.00;;;;;;;23.95;54.77;97565.63;107232;1275;22661;-84
2023/07/21 10:51:52;;;;;;;6.20;3.60;;;;;;;24.04;53.88;97563.49;107327;1274;22674;-85
2023/07/21 10:54:20;;;;;;;5.50;3.30;;;;;;;23.98;53.33;97562.79;107316;1274;24239;-85
2023/07/21 10:56:51;;;;;;;6.90;3.60;;;;;;;24.11;54.96;97565.59;107325;1275;22538;-85
2023/07/21 10:59:19;;;;;;;7.90;3.40;;;;;;;24.37;55.41;97564.59;107091;1275;22646;-85
2023/07/21 11:01:50;;;;;;;7.30;3.10;;;;;;;24.57;54.42;97567.21;107226;1268;22540;-83
2023/07/21 11:04:20;;;;;;;6.10;2.90;;;;;;;24.60;52.83;97562.48;107130;1275;25225;-83
2023/07/21 11:06:54;;;;;;;5.10;2.90;;;;;;;24.74;53.77;97560.69;107426;1275;22555;-81
2023/07/21 11:09:23;;;;;;;;;;;;;;;25.00;54.08;97557.88;107439;1275;25334;-83
2023/07/21 11:11:53;;;;;;;4.60;2.90;;;;;;;25.18;53.33;97559.45;107481;1275;24068;-85
2023/07/21 11:14:24;;;;;;;5.50;3.10;;;;;;;25.30;53.12;97549.98;107338;1275;24208;-85
2023/07/21 11:16:52;;;;;;;5.10;3.60;;;;;;;25.53;53.60;97551.55;107410;1263;22525;-83
2023/07/21 11:19:21;;;;;;;5.50;3.40;;;;;;;25.46;50.41;97545.70;107439;1275;22531;-85
2023/07/21 11:21:50;;;;;;;8.20;2.90;;;;;;;25.21;50.53;97540.14;107507;1275;22741;-80
2023/07/21 11:24:25;;;;;;;5.50;3.40;;;;;;;25.25;50.58;97534.42;107502;1253;22580;-79
2023/07/21 11:26:58;;;;;;;6.10;3.20;;;;;;;25.26;50.61;97529.14;107527;1275;22549;-81
2023/07/21 11:29:29;;;;;;;3.80;2.80;;;;;;;25.33;51.16;97520.83;107186;1275;24371;-81
2023/07/21 11:31:58;;;;;;;10.00;3.20;;;;;;;25.66;51.92;97516.53;107408;1275;22574;-81
2023/07/21 11:34:29;;;;;;;6.70;2.90;;;;;;;26.06;50.69;97517.66;107370;1275;22544;-82
2023/07/21 11:37:00;;;;;;;8.10;2.70;;;;;;;26.30;49.92;97520.54;107293;1275;22549;-80
2023/07/21 11:39:29;;;;;;;7.80;2.70;;;;;;;26.31;48.89;97521.16;107373;1275;24238;-80
2023/07/21 11:41:59;;;;;;;4.10;2.70;;;;;;;26.18;48.99;97516.65;107405;1275;22594;-80
2023/07/21 11:44:30;;;;;;;3.90;2.50;;;;;;;26.15;49.22;97510.92;107400;1275;22899;-79